Kezdőlap
METAR-TAF:

METAR-TAF

Repülőterek :

Enid, Oklahoma, Amerikai Egyesült Államok

földrajzi szélesség: 36-22-45N, földrajzi hosszúság: 097-47-28W, magasság: 356 m

Jelenlegi meteorológiai megfigyelések

A jelentés 18 perccel ezelõtt készült, 02:15 UTC
Délkeleti szél 7 kt, északkeleti és délkeleti között változik
Hőmérséklet 28°C
Páratartalom 55%
Légköri nyomás 1016 hPa
Látótávolság: 16.1 km
Derült ég

METAR: KWDG 220215Z AUTO 13007KT 045V145 10SM CLR 28/18 A2999 RMK AO2

Idő: 21:33 (02:33 UTC)


TAF: hiányzik

Meteorológiai megfigyelések és előrejelzések több, mint 4000 repülőtéren (METAR és TAF jelentéseket).

A térképen piros és sárga pontok jelzik az elérhető meteorológiai állomásokat.

Mozgassa az egeret a pont fölött, hogy megjelenjen az állomás neve.

Azután kattintson az időjárási megfigyelések és előrejelzések megtekintéséhez.

A térkép megváltoztatása: kattintson a fekete keresztel jelölt zöld gombra ráközelítéshez, a vonallal jelölt zöld gombra távolításhoz, vagy a zöld nyilakra a szomszédos térképek eléréséhez.


METAR-TAF: